createdAt,value
2022-09-11T00:01:31.340Z,17.90
2022-09-11T00:03:58.510Z,17.90
2022-09-11T00:06:30.717Z,17.80
2022-09-11T00:09:01.855Z,17.80
2022-09-11T00:11:31.711Z,17.80
2022-09-11T00:13:59.093Z,17.70
2022-09-11T00:16:27.102Z,17.70
2022-09-11T00:18:56.539Z,17.70
2022-09-11T00:21:24.617Z,17.70
2022-09-11T00:23:51.611Z,17.70
2022-09-11T00:26:19.752Z,17.70
2022-09-11T00:28:47.841Z,17.70
2022-09-11T00:31:20.493Z,17.60
2022-09-11T00:33:47.747Z,17.50
2022-09-11T00:36:25.789Z,17.50
2022-09-11T00:38:53.364Z,17.60
2022-09-11T00:41:24.256Z,17.60
2022-09-11T00:44:28.355Z,17.60
2022-09-11T00:47:03.175Z,17.50
2022-09-11T00:49:44.499Z,17.50
2022-09-11T00:52:31.170Z,17.60
2022-09-11T00:55:04.627Z,17.60
2022-09-11T00:57:36.721Z,17.50
2022-09-11T01:00:06.275Z,17.50
2022-09-11T01:02:36.985Z,17.50
2022-09-11T01:05:06.036Z,17.50
2022-09-11T01:07:38.506Z,17.50
2022-09-11T01:10:07.673Z,17.50
2022-09-11T01:12:37.492Z,17.50
2022-09-11T01:15:12.276Z,17.50
2022-09-11T01:18:06.471Z,17.40
2022-09-11T01:20:46.011Z,17.50
2022-09-11T01:23:50.071Z,17.40
2022-09-11T01:26:54.069Z,17.40
2022-09-11T01:29:45.334Z,17.50
2022-09-11T01:32:24.322Z,17.40
2022-09-11T01:34:58.126Z,17.40
2022-09-11T01:37:50.443Z,17.30
2022-09-11T01:40:30.604Z,17.40
2022-09-11T01:43:06.195Z,17.40
2022-09-11T01:45:37.317Z,17.40
2022-09-11T01:48:08.287Z,17.40
2022-09-11T01:50:39.819Z,17.40
2022-09-11T01:53:09.729Z,17.40
2022-09-11T01:55:51.190Z,17.40
2022-09-11T01:58:28.417Z,17.30
2022-09-11T02:01:21.041Z,17.30
2022-09-11T02:03:57.363Z,17.30
2022-09-11T02:06:30.483Z,17.30
2022-09-11T02:09:01.721Z,17.30
2022-09-11T02:11:34.665Z,17.40
2022-09-11T02:14:16.367Z,17.40
2022-09-11T02:16:52.402Z,17.40
2022-09-11T02:19:24.024Z,17.30
2022-09-11T02:21:51.401Z,17.30
2022-09-11T02:24:19.871Z,17.20
2022-09-11T02:26:55.186Z,17.10
2022-09-11T02:29:22.435Z,17.10
2022-09-11T02:31:49.810Z,17.00
2022-09-11T02:34:18.540Z,17.00
2022-09-11T02:36:51.460Z,16.90
2022-09-11T02:39:52.238Z,16.90
2022-09-11T02:42:45.216Z,17.00
2022-09-11T02:45:12.546Z,17.00
2022-09-11T02:47:43.447Z,17.10
2022-09-11T02:51:04.389Z,17.10
2022-09-11T03:29:31.779Z,17.20
2022-09-11T03:31:59.948Z,17.20
2022-09-11T03:34:27.222Z,17.20
2022-09-11T03:36:54.295Z,17.20
2022-09-11T03:39:21.364Z,17.20
2022-09-11T03:41:48.425Z,17.20
2022-09-11T03:44:15.259Z,17.30
2022-09-11T03:46:42.090Z,17.30
2022-09-11T03:49:09.842Z,17.30
2022-09-11T03:51:37.137Z,17.20
2022-09-11T03:54:04.518Z,17.20
2022-09-11T03:56:32.022Z,17.30
2022-09-11T03:59:00.293Z,17.30
2022-09-11T04:01:29.294Z,17.30
2022-09-11T04:03:57.181Z,17.30
2022-09-11T04:06:29.829Z,17.30
2022-09-11T04:08:56.915Z,17.30
2022-09-11T04:11:24.228Z,17.30
2022-09-11T04:13:52.222Z,17.30
2022-09-11T04:16:20.538Z,17.30
2022-09-11T04:18:54.075Z,17.30
2022-09-11T04:21:21.443Z,17.20
2022-09-11T04:23:59.069Z,17.30
2022-09-11T04:26:32.211Z,17.20
2022-09-11T04:29:07.189Z,17.30
2022-09-11T04:31:36.374Z,17.30
2022-09-11T04:34:04.151Z,17.20
2022-09-11T04:36:34.990Z,17.20
2022-09-11T04:39:02.135Z,17.30
2022-09-11T04:41:30.217Z,17.40
2022-09-11T04:44:04.722Z,17.60
2022-09-11T04:46:34.901Z,17.40
2022-09-11T04:49:04.860Z,17.30
2022-09-11T04:51:34.898Z,17.30
2022-09-11T04:54:03.223Z,17.20
2022-09-11T04:56:38.112Z,17.20
2022-09-11T04:59:16.197Z,17.20
2022-09-11T05:01:48.840Z,17.30
2022-09-11T05:04:21.727Z,17.30
2022-09-11T05:06:50.057Z,17.40
2022-09-11T05:09:19.365Z,17.40
2022-09-11T05:11:48.411Z,17.40
2022-09-11T05:14:17.120Z,17.40
2022-09-11T05:16:46.542Z,17.40
2022-09-11T05:19:15.436Z,17.20
2022-09-11T05:21:44.594Z,17.20
2022-09-11T05:24:11.659Z,17.20
2022-09-11T05:26:40.832Z,17.20
2022-09-11T05:29:11.988Z,17.20
2022-09-11T05:31:44.932Z,17.10
2022-09-11T05:34:14.855Z,17.10
2022-09-11T05:36:41.900Z,17.00
2022-09-11T05:39:10.536Z,17.10
2022-09-11T05:41:38.777Z,17.10
2022-09-11T05:44:05.948Z,17.10
2022-09-11T05:46:33.987Z,17.00
2022-09-11T05:49:03.449Z,17.00
2022-09-11T05:51:30.366Z,16.90
2022-09-11T05:53:59.027Z,16.90
2022-09-11T05:56:28.327Z,16.90
2022-09-11T05:58:59.717Z,16.90
2022-09-11T06:01:33.374Z,17.00
2022-09-11T06:04:12.633Z,16.90
2022-09-11T06:06:43.711Z,16.90
2022-09-11T06:09:10.723Z,16.90
2022-09-11T06:11:37.763Z,16.90
2022-09-11T06:14:07.560Z,17.00
2022-09-11T06:16:35.641Z,17.10
2022-09-11T06:19:10.081Z,17.10
2022-09-11T06:21:37.020Z,17.10
2022-09-11T06:24:28.319Z,17.10
2022-09-11T06:26:56.961Z,17.00
2022-09-11T06:29:25.934Z,17.00
2022-09-11T06:31:54.279Z,17.10
2022-09-11T06:34:24.793Z,17.20
2022-09-11T06:36:52.755Z,17.20
2022-09-11T06:39:23.373Z,17.10
2022-09-11T06:41:53.339Z,17.10
2022-09-11T06:44:27.326Z,17.00
2022-09-11T06:46:55.360Z,17.00
2022-09-11T06:49:23.856Z,17.00
2022-09-11T06:52:09.317Z,17.10
2022-09-11T06:54:36.748Z,17.20
2022-09-11T06:57:09.219Z,17.20
2022-09-11T06:59:36.271Z,17.20
2022-09-11T07:02:03.456Z,17.20
2022-09-11T07:04:30.468Z,17.20
2022-09-11T07:06:57.643Z,17.10
2022-09-11T07:09:25.527Z,17.10
2022-09-11T07:11:55.851Z,17.20
2022-09-11T07:14:26.228Z,17.20
2022-09-11T07:17:00.819Z,17.30
2022-09-11T07:19:28.208Z,17.30
2022-09-11T07:21:55.035Z,17.40
2022-09-11T07:24:25.581Z,17.40
2022-09-11T07:26:54.892Z,17.40
2022-09-11T07:29:29.044Z,17.40
2022-09-11T07:31:58.681Z,17.40
2022-09-11T07:34:26.916Z,17.40
2022-09-11T07:36:55.448Z,17.50
2022-09-11T07:39:25.557Z,17.60
2022-09-11T07:42:15.429Z,17.60
2022-09-11T07:44:43.110Z,17.70
2022-09-11T07:47:10.467Z,17.70
2022-09-11T07:49:42.919Z,17.80
2022-09-11T07:52:14.816Z,17.70
2022-09-11T07:54:50.995Z,17.60
2022-09-11T07:57:19.705Z,17.70
2022-09-11T07:59:47.588Z,17.70
2022-09-11T08:02:15.084Z,17.70
2022-09-11T08:04:42.743Z,17.80
2022-09-11T08:07:10.658Z,17.80
2022-09-11T08:09:37.700Z,17.80
2022-09-11T08:12:06.416Z,17.90
2022-09-11T08:14:37.081Z,17.90
2022-09-11T08:17:31.601Z,18.00
2022-09-11T08:19:58.704Z,18.10
2022-09-11T08:22:25.669Z,18.10
2022-09-11T08:24:53.137Z,18.10
2022-09-11T08:27:20.408Z,18.20
2022-09-11T08:29:47.793Z,18.30
2022-09-11T08:32:14.828Z,18.30
2022-09-11T08:34:42.293Z,18.30
2022-09-11T08:37:09.262Z,18.40
2022-09-11T08:39:37.778Z,18.30
2022-09-11T08:42:14.178Z,18.40
2022-09-11T08:44:52.735Z,18.50
2022-09-11T08:47:34.593Z,18.40
2022-09-11T08:50:08.342Z,18.30
2022-09-11T08:52:37.379Z,18.30
2022-09-11T08:55:32.737Z,18.40
2022-09-11T08:58:15.091Z,18.30
2022-09-11T09:00:57.657Z,18.50
2022-09-11T09:03:37.026Z,18.60
2022-09-11T09:06:21.636Z,18.60
2022-09-11T09:09:35.162Z,18.60
2022-09-11T09:12:20.994Z,18.50
2022-09-11T09:15:13.934Z,18.50
2022-09-11T09:17:51.210Z,18.60
2022-09-11T09:20:28.650Z,18.60
2022-09-11T09:23:06.826Z,18.70
2022-09-11T09:25:39.907Z,18.80
2022-09-11T09:28:19.218Z,18.80
2022-09-11T09:30:58.674Z,18.90
2022-09-11T09:33:35.533Z,19.00
2022-09-11T09:36:37.739Z,19.10
2022-09-11T09:39:17.110Z,19.40
2022-09-11T09:42:18.696Z,19.50
2022-09-11T09:45:09.992Z,19.60
2022-09-11T09:47:44.627Z,19.60
2022-09-11T09:50:28.323Z,19.60
2022-09-11T09:53:03.953Z,19.70
2022-09-11T09:55:32.169Z,19.80
2022-09-11T09:57:59.290Z,19.70
2022-09-11T10:00:26.526Z,19.90
2022-09-11T10:02:58.599Z,20.10
2022-09-11T10:05:41.118Z,20.30
2022-09-11T10:08:29.192Z,20.20
2022-09-11T10:11:12.142Z,20.20
2022-09-11T10:13:42.544Z,20.20
2022-09-11T10:16:27.187Z,20.30
2022-09-11T10:18:57.713Z,20.50
2022-09-11T10:21:29.886Z,20.50
2022-09-11T10:24:10.754Z,20.70
2022-09-11T10:26:49.830Z,20.70
2022-09-11T10:29:22.798Z,20.50
2022-09-11T10:31:52.248Z,20.50
2022-09-11T10:34:20.945Z,20.60
2022-09-11T10:37:04.360Z,20.60
2022-09-11T10:39:36.088Z,20.50
2022-09-11T10:42:25.997Z,20.40
2022-09-11T10:44:54.822Z,20.50
2022-09-11T10:47:31.005Z,20.60
2022-09-11T10:50:16.052Z,20.80
2022-09-11T10:52:58.154Z,21.00
2022-09-11T10:55:34.770Z,21.00
2022-09-11T10:58:09.036Z,21.00
2022-09-11T11:00:38.650Z,20.90
2022-09-11T11:03:12.459Z,20.80
2022-09-11T11:06:01.042Z,20.80
2022-09-11T11:08:46.012Z,20.80
2022-09-11T11:12:01.516Z,20.80
2022-09-11T11:14:55.478Z,20.90
2022-09-11T11:17:36.707Z,21.00
2022-09-11T11:20:16.104Z,21.10
2022-09-11T11:22:58.371Z,21.20
2022-09-11T11:25:32.417Z,21.50
2022-09-11T11:28:25.573Z,21.80
2022-09-11T11:31:07.634Z,21.70
2022-09-11T11:33:39.899Z,21.90
2022-09-11T11:36:34.375Z,21.90
2022-09-11T11:39:23.404Z,21.70
2022-09-11T11:42:07.602Z,21.60
2022-09-11T11:44:48.347Z,21.40
2022-09-11T11:47:17.836Z,21.40
2022-09-11T11:49:45.528Z,21.20
2022-09-11T11:52:24.274Z,21.20
2022-09-11T11:55:25.619Z,21.20
2022-09-11T11:57:57.500Z,21.30
2022-09-11T12:00:26.316Z,21.30
2022-09-11T12:02:58.124Z,21.40
2022-09-11T12:05:29.101Z,21.50
2022-09-11T12:07:56.334Z,21.80
2022-09-11T12:10:39.166Z,22.00
2022-09-11T12:13:15.700Z,22.00
2022-09-11T12:16:23.013Z,22.00
2022-09-11T12:19:20.814Z,22.30
2022-09-11T12:21:53.681Z,22.40
2022-09-11T12:24:45.597Z,22.60
2022-09-11T12:27:34.674Z,22.50
2022-09-11T12:30:16.901Z,22.70
2022-09-11T12:32:46.777Z,22.70
2022-09-11T12:35:35.163Z,22.70
2022-09-11T12:38:09.059Z,22.70
2022-09-11T12:41:15.342Z,22.70
2022-09-11T12:43:42.389Z,22.90
2022-09-11T12:46:20.461Z,23.00
2022-09-11T12:49:18.061Z,23.20
2022-09-11T12:51:43.327Z,23.30
2022-09-11T12:54:18.401Z,23.50
2022-09-11T12:56:48.852Z,23.60
2022-09-11T12:59:26.651Z,23.70
2022-09-11T13:01:54.118Z,23.80
2022-09-11T13:04:24.776Z,23.70
2022-09-11T13:06:56.310Z,23.80
2022-09-11T13:09:30.422Z,23.90
2022-09-11T13:12:17.543Z,24.00
2022-09-11T13:14:48.264Z,24.00
2022-09-11T13:17:25.763Z,24.30
2022-09-11T13:19:57.558Z,24.50
2022-09-11T13:22:26.361Z,24.50
2022-09-11T13:25:15.515Z,24.70
2022-09-11T13:27:46.441Z,24.70
2022-09-11T13:30:19.321Z,24.70
2022-09-11T13:32:49.110Z,24.80
2022-09-11T13:35:27.217Z,24.80
2022-09-11T13:38:05.264Z,24.80
2022-09-11T13:40:44.422Z,24.60
2022-09-11T13:43:21.925Z,24.50
2022-09-11T13:45:49.335Z,24.40
2022-09-11T13:48:23.242Z,24.40
2022-09-11T13:50:51.896Z,24.40
2022-09-11T13:53:20.130Z,24.20
2022-09-11T13:55:49.159Z,24.00
2022-09-11T13:58:25.032Z,23.90
2022-09-11T14:00:55.220Z,23.90
2022-09-11T14:03:30.474Z,23.70
2022-09-11T14:06:00.615Z,23.60
2022-09-11T14:08:32.506Z,23.50
2022-09-11T14:11:11.411Z,23.50
2022-09-11T14:13:56.707Z,23.50
2022-09-11T14:16:31.421Z,23.40
2022-09-11T14:19:19.543Z,23.40
2022-09-11T14:21:49.036Z,23.30
2022-09-11T14:24:39.161Z,23.20
2022-09-11T14:27:30.535Z,23.20
2022-09-11T14:29:57.718Z,23.20
2022-09-11T14:32:33.797Z,23.10
2022-09-11T14:35:01.426Z,23.20
2022-09-11T14:37:34.827Z,23.20
2022-09-11T14:40:10.927Z,23.30
2022-09-11T14:42:37.881Z,23.40
2022-09-11T14:45:10.037Z,23.60
2022-09-11T14:47:37.092Z,23.80
2022-09-11T14:50:08.114Z,24.00
2022-09-11T14:52:37.418Z,24.10
2022-09-11T14:55:04.576Z,24.20
2022-09-11T14:57:34.724Z,24.10
2022-09-11T15:00:01.901Z,23.90
2022-09-11T15:02:29.832Z,23.80
2022-09-11T15:04:58.205Z,23.70
2022-09-11T15:07:27.608Z,23.60
2022-09-11T15:09:55.449Z,23.70
2022-09-11T15:12:22.903Z,23.60
2022-09-11T15:14:58.767Z,23.60
2022-09-11T15:17:31.767Z,23.60
2022-09-11T15:20:00.262Z,23.60
2022-09-11T15:22:28.142Z,23.90
2022-09-11T15:24:56.436Z,24.20
2022-09-11T15:27:25.319Z,24.40
2022-09-11T15:29:53.254Z,24.90
2022-09-11T15:32:21.350Z,25.10
2022-09-11T15:34:48.392Z,25.20
2022-09-11T15:37:18.628Z,25.40
2022-09-11T15:39:45.659Z,25.60
2022-09-11T15:42:13.491Z,25.70
2022-09-11T15:44:41.014Z,25.60
2022-09-11T15:47:08.950Z,25.50
2022-09-11T15:49:44.599Z,25.60
2022-09-11T15:52:11.589Z,25.60
2022-09-11T15:54:38.610Z,25.70
2022-09-11T15:57:05.747Z,25.90
2022-09-11T15:59:32.975Z,25.90
2022-09-11T16:02:00.461Z,26.10
2022-09-11T16:04:32.254Z,26.30
2022-09-11T16:06:59.398Z,26.50
2022-09-11T16:09:29.424Z,26.70
2022-09-11T16:11:56.956Z,26.90
2022-09-11T16:14:33.204Z,27.00
2022-09-11T16:17:02.327Z,27.20
2022-09-11T16:19:30.381Z,27.20
2022-09-11T16:21:59.432Z,27.10
2022-09-11T16:24:28.424Z,27.00
2022-09-11T16:27:04.296Z,27.20
2022-09-11T16:30:09.071Z,27.30
2022-09-11T16:32:28.826Z,27.30
2022-09-11T16:34:57.775Z,27.20
2022-09-11T16:37:25.872Z,27.40
2022-09-11T16:39:52.980Z,27.60
2022-09-11T16:42:21.268Z,27.50
2022-09-11T16:44:49.813Z,27.50
2022-09-11T16:47:17.817Z,27.50
2022-09-11T16:52:32.501Z,27.60
2022-09-11T16:54:59.814Z,27.70
2022-09-11T16:57:27.607Z,27.70
2022-09-11T16:59:54.851Z,27.70
2022-09-11T17:02:21.908Z,27.70
2022-09-11T17:04:48.950Z,27.60
2022-09-11T17:07:16.066Z,27.50
2022-09-11T17:09:43.722Z,27.40
2022-09-11T17:12:11.524Z,27.20
2022-09-11T17:14:38.874Z,26.90
2022-09-11T17:17:05.906Z,26.60
2022-09-11T17:19:32.864Z,26.20
2022-09-11T17:22:00.086Z,26.00
2022-09-11T17:24:27.190Z,25.70
2022-09-11T17:26:55.955Z,25.50
2022-09-11T17:29:23.075Z,25.30
2022-09-11T17:32:01.154Z,25.10
2022-09-11T17:34:37.524Z,24.90
2022-09-11T17:37:05.227Z,24.70
2022-09-11T17:39:32.216Z,24.60
2022-09-11T17:41:59.107Z,24.50
2022-09-11T17:44:26.234Z,24.40
2022-09-11T17:46:53.453Z,24.30
2022-09-11T17:49:21.293Z,24.20
2022-09-11T17:51:49.054Z,24.00
2022-09-11T17:54:16.910Z,23.90
2022-09-11T17:56:43.878Z,23.80
2022-09-11T17:59:10.859Z,23.80
2022-09-11T18:01:38.189Z,23.60
2022-09-11T18:04:05.637Z,23.60
2022-09-11T18:06:36.272Z,23.40
2022-09-11T18:09:13.890Z,23.30
2022-09-11T18:11:46.971Z,23.20
2022-09-11T18:14:15.257Z,23.10
2022-09-11T18:16:47.277Z,23.00
2022-09-11T18:19:16.252Z,22.90
2022-09-11T18:21:49.248Z,22.90
2022-09-11T18:24:21.802Z,22.90
2022-09-11T18:26:51.987Z,22.80
2022-09-11T18:29:20.479Z,22.80
2022-09-11T18:31:50.247Z,22.70
2022-09-11T18:34:22.207Z,22.70
2022-09-11T18:36:49.886Z,22.70
2022-09-11T18:39:18.642Z,22.70
2022-09-11T18:41:47.583Z,22.70
2022-09-11T18:44:19.854Z,22.70
2022-09-11T18:46:48.036Z,22.70
2022-09-11T18:49:16.110Z,22.70
2022-09-11T18:51:43.399Z,22.60
2022-09-11T18:54:20.727Z,22.50
2022-09-11T18:56:49.260Z,22.50
2022-09-11T18:59:16.964Z,22.40
2022-09-11T19:01:44.125Z,22.20
2022-09-11T19:04:12.303Z,22.40
2022-09-11T19:06:40.185Z,22.30
2022-09-11T19:09:13.517Z,22.20
2022-09-11T19:11:40.893Z,22.20
2022-09-11T19:14:10.864Z,22.20
2022-09-11T19:16:39.179Z,22.20
2022-09-11T19:19:10.250Z,22.10
2022-09-11T19:21:40.784Z,22.00
2022-09-11T19:24:08.058Z,21.90
2022-09-11T19:26:38.540Z,21.80
2022-09-11T19:29:06.449Z,21.80
2022-09-11T19:31:34.070Z,21.80
2022-09-11T19:34:01.712Z,21.70
2022-09-11T19:36:34.418Z,21.70
2022-09-11T19:39:02.114Z,21.60
2022-09-11T19:41:32.230Z,21.60
2022-09-11T19:44:01.732Z,21.50
2022-09-11T19:46:30.646Z,21.40
2022-09-11T19:49:00.688Z,21.30
2022-09-11T19:51:36.352Z,21.30
2022-09-11T19:54:05.153Z,21.30
2022-09-11T19:56:35.125Z,21.10
2022-09-11T19:59:02.421Z,21.10
2022-09-11T20:01:30.840Z,21.10
2022-09-11T20:04:00.633Z,21.00
2022-09-11T20:06:30.813Z,20.90
2022-09-11T20:09:13.809Z,20.90
2022-09-11T20:11:46.446Z,21.00
2022-09-11T20:14:13.535Z,21.00
2022-09-11T20:16:41.665Z,20.90
2022-09-11T20:19:09.822Z,20.90
2022-09-11T20:21:36.808Z,20.90
2022-09-11T20:24:06.233Z,20.90
2022-09-11T20:26:34.164Z,20.80
2022-09-11T20:29:04.595Z,20.80
2022-09-11T20:31:37.079Z,20.80
2022-09-11T20:34:08.114Z,20.70
2022-09-11T20:36:35.092Z,20.70
2022-09-11T20:39:02.066Z,20.60
2022-09-11T20:41:31.282Z,20.60
2022-09-11T20:44:00.513Z,20.60
2022-09-11T20:46:28.160Z,20.60
2022-09-11T20:48:55.365Z,20.60
2022-09-11T20:51:23.061Z,20.50
2022-09-11T20:53:50.832Z,20.40
2022-09-11T20:56:20.710Z,20.40
2022-09-11T20:58:48.131Z,20.40
2022-09-11T21:01:19.011Z,20.30
2022-09-11T21:03:48.591Z,20.20
2022-09-11T21:06:16.263Z,20.20
2022-09-11T21:08:44.662Z,20.20
2022-09-11T21:11:12.747Z,20.30
2022-09-11T21:13:41.496Z,20.10
2022-09-11T21:16:11.254Z,20.00
2022-09-11T21:18:39.640Z,19.90
2022-09-11T21:21:07.266Z,20.00
2022-09-11T21:23:34.444Z,19.90
2022-09-11T21:26:02.840Z,20.00
2022-09-11T21:28:30.978Z,19.90
2022-09-11T21:30:59.015Z,19.80
2022-09-11T21:33:26.989Z,19.80
2022-09-11T21:35:55.200Z,19.60
2022-09-11T21:38:29.508Z,19.50
2022-09-11T21:41:01.638Z,19.50
2022-09-11T21:43:28.720Z,19.50
2022-09-11T21:45:55.979Z,19.40
2022-09-11T21:48:23.889Z,19.40
2022-09-11T21:50:51.293Z,19.40
2022-09-11T21:53:18.663Z,19.40
2022-09-11T21:55:47.219Z,19.40
2022-09-11T21:58:20.359Z,19.30
2022-09-11T22:00:48.750Z,19.20
2022-09-11T22:03:18.526Z,19.20
2022-09-11T22:05:49.184Z,19.10
2022-09-11T22:08:22.520Z,19.10
2022-09-11T22:10:51.114Z,19.10
2022-09-11T22:13:19.466Z,19.00
2022-09-11T22:15:48.896Z,19.00
2022-09-11T22:18:17.429Z,18.80
2022-09-11T22:20:45.506Z,18.70
2022-09-11T22:23:17.472Z,18.70
2022-09-11T22:25:45.363Z,18.70
2022-09-11T22:28:12.682Z,18.70
2022-09-11T22:30:43.850Z,18.80
2022-09-11T22:33:11.201Z,18.80
2022-09-11T22:35:38.299Z,18.60
2022-09-11T22:38:05.296Z,18.40
2022-09-11T22:40:32.247Z,18.30
2022-09-11T22:42:59.872Z,18.30
2022-09-11T22:45:27.547Z,18.40
2022-09-11T22:47:54.595Z,18.30
2022-09-11T22:50:21.627Z,18.20
2022-09-11T22:52:48.863Z,18.30
2022-09-11T22:55:16.267Z,18.30
2022-09-11T22:57:43.974Z,18.30
2022-09-11T23:00:13.021Z,18.20
2022-09-11T23:02:40.149Z,18.20
2022-09-11T23:05:26.850Z,18.20
2022-09-11T23:07:54.803Z,18.20
2022-09-11T23:10:23.757Z,18.10
2022-09-11T23:12:52.195Z,17.90
2022-09-11T23:15:22.555Z,18.10
2022-09-11T23:17:49.797Z,18.00
2022-09-11T23:20:19.000Z,17.90
2022-09-11T23:22:46.208Z,17.80
2022-09-11T23:25:13.962Z,17.80
2022-09-11T23:27:44.143Z,17.80
2022-09-11T23:30:11.516Z,17.90
2022-09-11T23:32:41.753Z,17.90
2022-09-11T23:35:10.362Z,17.90
2022-09-11T23:37:40.168Z,17.90
2022-09-11T23:40:09.920Z,17.90
2022-09-11T23:42:36.903Z,17.80
2022-09-11T23:45:04.662Z,17.70
2022-09-11T23:47:31.507Z,17.80
2022-09-11T23:49:58.746Z,17.80
2022-09-11T23:52:26.349Z,17.80
2022-09-11T23:54:53.366Z,17.80
2022-09-11T23:57:20.162Z,17.70
2022-09-11T23:59:47.086Z,17.70
